Temp: 3.8°C   Baro: 1036.3mb
  Wind: 2.9mph   Dir: W (273°)
  Rain: 0.0mm (0.0mm/hr)
  Solar: 0W/m2  Hum: 84%

Historic data

Bath Spa Weather Station Historical Data
Daily Summary for December 8, 2019 Units:  Both    English   Metric
Daily Weekly Monthly Yearly Custom
  High: Low: Average:
Temperature: 53.8 °F /  12.1 °C 42.7 °F /  5.9 °C 48 °F /  8.9 °C
Dew Point: 51.7 °F /  10.9 °C 38.4 °F /  3.6 °C 43.3 °F /  6.3 °C
Humidity: 93% 72% 84%
Wind Speed: 18mph /  29km/h - 10.2mph /  16.4km/h
Wind Gust: 35mph /  56.3km/h - -
Wind- - WSW
Pressure: 29.61 in /  1002.6 hPa 29.24 in /  990.1 hPa -
Precipitation: 0.52 in /  13.21 mm    
Historical Graphs
 
 
Tabular Data for December 8, 2019
Time Temperature Dew Point Pressure Wind Wind Speed Wind Gust Humidity Rainfall Rate (Hourly) solar
00:09 51.3 °F /  10.7 °C 48.7 °F /  9.3 °C 29.61in /  1002.6hPa SSW 10.6mph /  17.1km/h 22mph /  35.4km/h 91% 0.06in /  1.52mm 0 W/m2
00:14 51.3 °F /  10.7 °C 48.8 °F /  9.3 °C 29.61in /  1002.6hPa SSW 10.8mph /  17.4km/h 21mph /  33.8km/h 91% 0.06in /  1.52mm 0 W/m2
00:19 51.4 °F /  10.8 °C 48.9 °F /  9.4 °C 29.61in /  1002.6hPa SSW 15.4mph /  24.8km/h 22mph /  35.4km/h 91% 0.06in /  1.52mm 0 W/m2
00:24 51.4 °F /  10.8 °C 48.9 °F /  9.4 °C 29.61in /  1002.6hPa SSW 13.3mph /  21.4km/h 23mph /  37km/h 91% 0.07in /  1.78mm 0 W/m2
00:29 51.4 °F /  10.8 °C 48.9 °F /  9.4 °C 29.61in /  1002.6hPa SSW 14.4mph /  23.2km/h 22mph /  35.4km/h 91% 0.08in /  2.03mm 0 W/m2
00:34 51.4 °F /  10.8 °C 48.9 °F /  9.4 °C 29.61in /  1002.6hPa SSW 8.9mph /  14.3km/h 22mph /  35.4km/h 91% 0.09in /  2.29mm 0 W/m2
00:39 51.5 °F /  10.8 °C 49 °F /  9.4 °C 29.61in /  1002.6hPa SSW 14mph /  22.5km/h 29mph /  46.7km/h 91% 0.09in /  2.29mm 0 W/m2
00:44 51.6 °F /  10.9 °C 49.1 °F /  9.5 °C 29.61in /  1002.6hPa SSW 8.6mph /  13.8km/h 21mph /  33.8km/h 91.2% 0.10in /  2.54mm 0 W/m2
00:49 51.5 °F /  10.8 °C 49.3 °F /  9.6 °C 29.60in /  1002.3hPa South 6.9mph /  11.1km/h 15mph /  24.1km/h 92% 0.11in /  2.79mm 0 W/m2
00:54 51.6 °F /  10.9 °C 49.5 °F /  9.7 °C 29.60in /  1002.3hPa South 13.5mph /  21.7km/h 20mph /  32.2km/h 92% 0.11in /  2.79mm 0 W/m2
00:59 51.6 °F /  10.9 °C 49.5 °F /  9.7 °C 29.59in /  1001.9hPa SSW 8.6mph /  13.8km/h 13mph /  20.9km/h 92% 0.11in /  2.79mm 0 W/m2
01:04 51.7 °F /  10.9 °C 49.5 °F /  9.7 °C 29.59in /  1001.9hPa SSW 10.6mph /  17.1km/h 19mph /  30.6km/h 92% 0.11in /  2.79mm 0 W/m2
01:09 51.9 °F /  11.1 °C 49.6 °F /  9.8 °C 29.58in /  1001.6hPa SW 11.2mph /  18km/h 21mph /  33.8km/h 92% 0.12in /  3.05mm 0 W/m2
01:14 52.1 °F /  11.2 °C 49.7 °F /  9.8 °C 29.59in /  1001.9hPa SW 9.4mph /  15.1km/h 19mph /  30.6km/h 92% 0.13in /  3.3mm 0 W/m2
01:19 52.2 °F /  11.2 °C 49.8 °F /  9.9 °C 29.59in /  1001.9hPa SSW 8.6mph /  13.8km/h 19mph /  30.6km/h 92% 0.13in /  3.3mm 0 W/m2
01:24 52.3 °F /  11.3 °C 50 °F /  10 °C 29.57in /  1001.2hPa SW 13.2mph /  21.2km/h 21mph /  33.8km/h 92% 0.13in /  3.3mm 0 W/m2
01:29 52.5 °F /  11.4 °C 50.2 °F /  10.1 °C 29.57in /  1001.2hPa SW 9.8mph /  15.8km/h 20mph /  32.2km/h 92% 0.11in /  2.79mm 0 W/m2
01:34 52.4 °F /  11.3 °C 50.1 °F /  10.1 °C 29.57in /  1001.2hPa SSW 8.8mph /  14.2km/h 20mph /  32.2km/h 92% 0.11in /  2.79mm 0 W/m2
01:39 52.5 °F /  11.4 °C 50.2 °F /  10.1 °C 29.56in /  1000.9hPa SSW 8.6mph /  13.8km/h 16mph /  25.7km/h 92% 0.10in /  2.54mm 0 W/m2
01:44 52.5 °F /  11.4 °C 50.2 °F /  10.1 °C 29.56in /  1000.9hPa SSW 8.2mph /  13.2km/h 17mph /  27.4km/h 92% 0.09in /  2.29mm 0 W/m2
01:49 52.5 °F /  11.4 °C 50.2 °F /  10.1 °C 29.56in /  1000.9hPa SSW 13.3mph /  21.4km/h 22mph /  35.4km/h 92% 0.08in /  2.03mm 0 W/m2
01:54 52.8 °F /  11.6 °C 50.5 °F /  10.3 °C 29.55in /  1000.6hPa SSW 9.2mph /  14.8km/h 20mph /  32.2km/h 92% 0.08in /  2.03mm 0 W/m2
01:59 52.7 °F /  11.5 °C 50.4 °F /  10.2 °C 29.55in /  1000.6hPa South 7.8mph /  12.6km/h 20mph /  32.2km/h 92% 0.08in /  2.03mm 0 W/m2
02:04 52.8 °F /  11.6 °C 50.4 °F /  10.2 °C 29.55in /  1000.6hPa SW 12mph /  19.3km/h 23mph /  37km/h 92% 0.06in /  1.52mm 0 W/m2
02:09 52.9 °F /  11.6 °C 50.5 °F /  10.3 °C 29.55in /  1000.6hPa SW 7.6mph /  12.2km/h 23mph /  37km/h 92% 0.05in /  1.27mm 0 W/m2
02:14 53 °F /  11.7 °C 50.6 °F /  10.3 °C 29.54in /  1000.2hPa SSW 9.4mph /  15.1km/h 22mph /  35.4km/h 92% 0.05in /  1.27mm 0 W/m2
02:19 52.9 °F /  11.6 °C 50.5 °F /  10.3 °C 29.54in /  1000.2hPa WSW 7.8mph /  12.6km/h 18mph /  29km/h 92% 0.04in /  1.02mm 0 W/m2
02:24 52.9 °F /  11.6 °C 50.5 °F /  10.3 °C 29.54in /  1000.2hPa SW 8.8mph /  14.2km/h 17mph /  27.4km/h 92% 0.03in /  0.76mm 0 W/m2
02:29 52.9 °F /  11.6 °C 50.5 °F /  10.3 °C 29.54in /  1000.2hPa SW 9mph /  14.5km/h 14mph /  22.5km/h 92% 0.03in /  0.76mm 0 W/m2
02:34 52.9 °F /  11.6 °C 50.8 °F /  10.4 °C 29.54in /  1000.2hPa SW 7.6mph /  12.2km/h 17mph /  27.4km/h 92.8% 0.03in /  0.76mm 0 W/m2
02:39 53 °F /  11.7 °C 51 °F /  10.6 °C 29.53in /  999.9hPa SW 10mph /  16.1km/h 19mph /  30.6km/h 93% 0.02in /  0.51mm 0 W/m2
02:44 53.1 °F /  11.7 °C 51.1 °F /  10.6 °C 29.53in /  999.9hPa SSW 10.7mph /  17.2km/h 19mph /  30.6km/h 93% 0.02in /  0.51mm 0 W/m2
02:49 53.1 °F /  11.7 °C 51.2 °F /  10.7 °C 29.52in /  999.5hPa SSW 13.4mph /  21.6km/h 23mph /  37km/h 93% 0.01in /  0.25mm 0 W/m2
02:54 53.2 °F /  11.8 °C 51.3 °F /  10.7 °C 29.52in /  999.5hPa SSW 9mph /  14.5km/h 23mph /  37km/h 93% 0.01in /  0.25mm 0 W/m2
02:58 53.2 °F /  11.8 °C 51.3 °F /  10.7 °C 29.52in /  999.5hPa SW 10.5mph /  16.9km/h 17mph /  27.4km/h 93% 0.00in /  0mm 0 W/m2
03:04 53.3 °F /  11.8 °C 51.3 °F /  10.7 °C 29.53in /  999.9hPa SW 12.6mph /  20.3km/h 19mph /  30.6km/h 93% 0.00in /  0mm 0 W/m2
03:09 53.5 °F /  11.9 °C 51.5 °F /  10.8 °C 29.54in /  1000.2hPa West 17.4mph /  28km/h 35mph /  56.3km/h 93% 0.01in /  0.25mm 0 W/m2
03:14 53.8 °F /  12.1 °C 51.7 °F /  10.9 °C 29.53in /  999.9hPa WSW 12.4mph /  20km/h 29mph /  46.7km/h 92.6% 0.01in /  0.25mm 0 W/m2
03:19 53.8 °F /  12.1 °C 51.4 °F /  10.8 °C 29.52in /  999.5hPa WSW 8mph /  12.9km/h 21mph /  33.8km/h 92% 0.01in /  0.25mm 0 W/m2
03:24 53.7 °F /  12.1 °C 51.2 °F /  10.7 °C 29.53in /  999.9hPa West 7.2mph /  11.6km/h 18mph /  29km/h 91% 0.01in /  0.25mm 0 W/m2
03:29 53.6 °F /  12 °C 50.8 °F /  10.4 °C 29.52in /  999.5hPa WSW 14.2mph /  22.9km/h 27mph /  43.5km/h 90.2% 0.01in /  0.25mm 0 W/m2
03:34 53.4 °F /  11.9 °C 50.3 °F /  10.2 °C 29.52in /  999.5hPa West 7.2mph /  11.6km/h 27mph /  43.5km/h 89.2% 0.01in /  0.25mm 0 W/m2
03:38 53.2 °F /  11.8 °C 49.8 °F /  9.9 °C 29.52in /  999.5hPa West 5.5mph /  8.9km/h 19mph /  30.6km/h 88.3% 0.01in /  0.25mm 0 W/m2
03:44 53 °F /  11.7 °C 49.5 °F /  9.7 °C 29.53in /  999.9hPa West 8.6mph /  13.8km/h 19mph /  30.6km/h 88% 0.01in /  0.25mm 0 W/m2
03:49 52.9 °F /  11.6 °C 49.3 °F /  9.6 °C 29.53in /  999.9hPa West 13.8mph /  22.2km/h 23mph /  37km/h 87.6% 0.01in /  0.25mm 0 W/m2
03:54 52.6 °F /  11.4 °C 48.6 °F /  9.2 °C 29.52in /  999.5hPa WSW 12.8mph /  20.6km/h 26mph /  41.8km/h 86.2% 0.01in /  0.25mm 0 W/m2
03:59 52.4 °F /  11.3 °C 48.1 °F /  8.9 °C 29.53in /  999.9hPa West 11.6mph /  18.7km/h 24mph /  38.6km/h 85% 0.01in /  0.25mm 0 W/m2
04:04 52.3 °F /  11.3 °C 47.6 °F /  8.7 °C 29.53in /  999.9hPa West 11.7mph /  18.8km/h 21mph /  33.8km/h 84% 0.01in /  0.25mm 0 W/m2
04:09 52.2 °F /  11.2 °C 47.5 °F /  8.6 °C 29.53in /  999.9hPa West 7.8mph /  12.6km/h 26mph /  41.8km/h 84% 0.00in /  0mm 0 W/m2
04:14 52 °F /  11.1 °C 47.3 °F /  8.5 °C 29.53in /  999.9hPa West 11mph /  17.7km/h 20mph /  32.2km/h 84% 0.00in /  0mm 0 W/m2
04:19 51.8 °F /  11 °C 47.1 °F /  8.4 °C 29.53in /  999.9hPa West 11.1mph /  17.9km/h 26mph /  41.8km/h 84% 0.00in /  0mm 0 W/m2
04:24 51.6 °F /  10.9 °C 46.9 °F /  8.3 °C 29.53in /  999.9hPa WSW 8.4mph /  13.5km/h 23mph /  37km/h 84% 0.00in /  0mm 0 W/m2
04:29 51.6 °F /  10.9 °C 46.9 °F /  8.3 °C 29.53in /  999.9hPa West 18mph /  29km/h 28mph /  45.1km/h 84% 0.00in /  0mm 0 W/m2
04:34 51.6 °F /  10.9 °C 46.9 °F /  8.3 °C 29.53in /  999.9hPa West 10mph /  16.1km/h 26mph /  41.8km/h 84% 0.00in /  0mm 0 W/m2
04:39 51.4 °F /  10.8 °C 46.8 °F /  8.2 °C 29.53in /  999.9hPa West 11.4mph /  18.3km/h 18mph /  29km/h 84% 0.00in /  0mm 0 W/m2
04:44 51.3 °F /  10.7 °C 46.8 °F /  8.2 °C 29.54in /  1000.2hPa West 10.2mph /  16.4km/h 22mph /  35.4km/h 84.4% 0.00in /  0mm 0 W/m2
04:49 51.3 °F /  10.7 °C 46.8 °F /  8.2 °C 29.54in /  1000.2hPa West 13.4mph /  21.6km/h 25mph /  40.2km/h 84.8% 0.00in /  0mm 0 W/m2
04:54 51.3 °F /  10.7 °C 46.6 °F /  8.1 °C 29.54in /  1000.2hPa West 16.2mph /  26.1km/h 23mph /  37km/h 84% 0.00in /  0mm 0 W/m2
04:59 51.3 °F /  10.7 °C 46.4 °F /  8 °C 29.54in /  1000.2hPa West 11.4mph /  18.3km/h 25mph /  40.2km/h 83.4% 0.00in /  0mm 0 W/m2
05:04 51.4 °F /  10.8 °C 46.3 °F /  7.9 °C 29.54in /  1000.2hPa West 15.4mph /  24.8km/h 30mph /  48.3km/h 83% 0.00in /  0mm 0 W/m2
05:09 51.3 °F /  10.7 °C 46.3 °F /  7.9 °C 29.54in /  1000.2hPa West 8.2mph /  13.2km/h 23mph /  37km/h 83% 0.00in /  0mm 0 W/m2
05:14 51.3 °F /  10.7 °C 46.4 °F /  8 °C 29.54in /  1000.2hPa West 12.5mph /  20.1km/h 22mph /  35.4km/h 83.4% 0.00in /  0mm 0 W/m2
05:19 51.3 °F /  10.7 °C 46.6 °F /  8.1 °C 29.54in /  1000.2hPa WNW 10.4mph /  16.7km/h 21mph /  33.8km/h 84% 0.00in /  0mm 0 W/m2
05:24 51.3 °F /  10.7 °C 46.6 °F /  8.1 °C 29.54in /  1000.2hPa West 12.8mph /  20.6km/h 22mph /  35.4km/h 84% 0.00in /  0mm 0 W/m2
05:29 51.3 °F /  10.7 °C 46.7 °F /  8.2 °C 29.54in /  1000.2hPa West 15mph /  24.1km/h 24mph /  38.6km/h 84.4% 0.00in /  0mm 0 W/m2
05:34 51.1 °F /  10.6 °C 46.4 °F /  8 °C 29.54in /  1000.2hPa West 15mph /  24.1km/h 29mph /  46.7km/h 84% 0.00in /  0mm 0 W/m2
05:39 51.1 °F /  10.6 °C 46.1 °F /  7.8 °C 29.54in /  1000.2hPa West 9.4mph /  15.1km/h 29mph /  46.7km/h 83.2% 0.00in /  0mm 0 W/m2
05:44 50.8 °F /  10.4 °C 45.8 °F /  7.7 °C 29.54in /  1000.2hPa West 13mph /  20.9km/h 20mph /  32.2km/h 83% 0.00in /  0mm 0 W/m2
05:49 50.7 °F /  10.4 °C 45.9 °F /  7.7 °C 29.55in /  1000.6hPa West 12.6mph /  20.3km/h 22mph /  35.4km/h 83.6% 0.00in /  0mm 0 W/m2
05:54 50.7 °F /  10.4 °C 45.7 °F /  7.6 °C 29.55in /  1000.6hPa West 7.5mph /  12.1km/h 22mph /  35.4km/h 83% 0.00in /  0mm 0 W/m2
05:59 50.6 °F /  10.3 °C 46 °F /  7.8 °C 29.55in /  1000.6hPa WSW 15.2mph /  24.5km/h 23mph /  37km/h 84% 0.00in /  0mm 0 W/m2
06:04 50.7 °F /  10.4 °C 46 °F /  7.8 °C 29.55in /  1000.6hPa West 11mph /  17.7km/h 24mph /  38.6km/h 84% 0.00in /  0mm 0 W/m2
06:09 50.8 °F /  10.4 °C 46.1 °F /  7.8 °C 29.55in /  1000.6hPa West 12.6mph /  20.3km/h 22mph /  35.4km/h 84% 0.00in /  0mm 0 W/m2
06:14 50.7 °F /  10.4 °C 45.9 °F /  7.7 °C 29.55in /  1000.6hPa West 10.1mph /  16.3km/h 18mph /  29km/h 83.8% 0.00in /  0mm 0 W/m2
06:19 50.7 °F /  10.4 °C 46 °F /  7.8 °C 29.55in /  1000.6hPa West 13.8mph /  22.2km/h 21mph /  33.8km/h 84% 0.00in /  0mm 0 W/m2
06:24 50.5 °F /  10.3 °C 45.7 °F /  7.6 °C 29.56in /  1000.9hPa West 15.6mph /  25.1km/h 23mph /  37km/h 83.4% 0.00in /  0mm 0 W/m2
06:29 50.5 °F /  10.3 °C 45.4 °F /  7.4 °C 29.56in /  1000.9hPa West 12mph /  19.3km/h 25mph /  40.2km/h 82.6% 0.00in /  0mm 0 W/m2
06:34 50.4 °F /  10.2 °C 45.2 °F /  7.3 °C 29.56in /  1000.9hPa West 10.4mph /  16.7km/h 22mph /  35.4km/h 82% 0.00in /  0mm 0 W/m2
06:38 50.3 °F /  10.2 °C 45.1 °F /  7.3 °C 29.56in /  1000.9hPa West 10.3mph /  16.6km/h 22mph /  35.4km/h 82% 0.00in /  0mm 0 W/m2
06:44 50.3 °F /  10.2 °C 45.1 °F /  7.3 °C 29.57in /  1001.2hPa WSW 10mph /  16.1km/h 21mph /  33.8km/h 82.4% 0.00in /  0mm 0 W/m2
06:49 50.1 °F /  10.1 °C 45 °F /  7.2 °C 29.57in /  1001.2hPa West 10.1mph /  16.3km/h 18mph /  29km/h 82.6% 0.00in /  0mm 0 W/m2
06:54 50.1 °F /  10.1 °C 44.9 °F /  7.2 °C 29.57in /  1001.2hPa West 14.8mph /  23.8km/h 19mph /  30.6km/h 82% 0.00in /  0mm 0 W/m2
06:58 50 °F /  10 °C 44.5 °F /  6.9 °C 29.57in /  1001.2hPa West 13.8mph /  22.2km/h 23mph /  37km/h 81.3% 0.00in /  0mm 0 W/m2
07:04 50 °F /  10 °C 44.4 °F /  6.9 °C 29.57in /  1001.2hPa West 12.6mph /  20.3km/h 21mph /  33.8km/h 81% 0.00in /  0mm 0 W/m2
07:09 49.9 °F /  9.9 °C 44.3 °F /  6.8 °C 29.57in /  1001.2hPa West 7.6mph /  12.2km/h 20mph /  32.2km/h 81% 0.00in /  0mm 0 W/m2
07:14 49.8 °F /  9.9 °C 44.4 °F /  6.9 °C 29.57in /  1001.2hPa West 9.4mph /  15.1km/h 20mph /  32.2km/h 81.6% 0.00in /  0mm 0 W/m2
07:19 49.8 °F /  9.9 °C 44.6 °F /  7 °C 29.57in /  1001.2hPa WSW 10.3mph /  16.6km/h 17mph /  27.4km/h 82% 0.00in /  0mm 0 W/m2
07:24 49.6 °F /  9.8 °C 44.4 °F /  6.9 °C 29.57in /  1001.2hPa West 10mph /  16.1km/h 19mph /  30.6km/h 82% 0.00in /  0mm 0 W/m2
07:29 49.6 °F /  9.8 °C 44.4 °F /  6.9 °C 29.57in /  1001.2hPa WSW 9.8mph /  15.8km/h 17mph /  27.4km/h 82% 0.00in /  0mm 0 W/m2
07:34 49.5 °F /  9.7 °C 44.2 °F /  6.8 °C 29.57in /  1001.2hPa WSW 8.8mph /  14.2km/h 17mph /  27.4km/h 82% 0.00in /  0mm 0 W/m2
07:39 49.5 °F /  9.7 °C 44.1 °F /  6.7 °C 29.58in /  1001.6hPa West 11.7mph /  18.8km/h 21mph /  33.8km/h 81.8% 0.00in /  0mm 0 W/m2
07:44 49.5 °F /  9.7 °C 44 °F /  6.7 °C 29.58in /  1001.6hPa West 7.9mph /  12.7km/h 21mph /  33.8km/h 81% 0.00in /  0mm 0 W/m2
07:49 49.5 °F /  9.7 °C 43.9 °F /  6.6 °C 29.58in /  1001.6hPa West 9.3mph /  15km/h 19mph /  30.6km/h 81% 0.00in /  0mm 0 W/m2
07:54 49.4 °F /  9.7 °C 43.4 °F /  6.3 °C 29.58in /  1001.6hPa WSW 7.6mph /  12.2km/h 15mph /  24.1km/h 80% 0.00in /  0mm 0 W/m2
07:59 49.3 °F /  9.6 °C 43.3 °F /  6.3 °C 29.58in /  1001.6hPa West 11mph /  17.7km/h 19mph /  30.6km/h 80% 0.00in /  0mm 0 W/m2
08:04 49.3 °F /  9.6 °C 43.3 °F /  6.3 °C 29.58in /  1001.6hPa WSW 9.5mph /  15.3km/h 19mph /  30.6km/h 80% 0.00in /  0mm 0 W/m2
08:09 49.3 °F /  9.6 °C 43.3 °F /  6.3 °C 29.58in /  1001.6hPa WSW 11.6mph /  18.7km/h 19mph /  30.6km/h 80% 0.00in /  0mm 5 W/m2
08:14 49.3 °F /  9.6 °C 43.3 °F /  6.3 °C 29.58in /  1001.6hPa West 7.4mph /  11.9km/h 16mph /  25.7km/h 80% 0.00in /  0mm 7 W/m2
08:19 49.2 °F /  9.6 °C 43.2 °F /  6.2 °C 29.58in /  1001.6hPa WSW 7.6mph /  12.2km/h 14mph /  22.5km/h 80% 0.00in /  0mm 9 W/m2
08:24 49.3 °F /  9.6 °C 43.3 °F /  6.3 °C 29.58in /  1001.6hPa West 8.8mph /  14.2km/h 13mph /  20.9km/h 80% 0.00in /  0mm 19 W/m2
08:29 49.3 °F /  9.6 °C 43.3 °F /  6.3 °C 29.58in /  1001.6hPa WSW 7.8mph /  12.6km/h 14mph /  22.5km/h 80% 0.00in /  0mm 39 W/m2
08:34 49.4 °F /  9.7 °C 43.4 °F /  6.3 °C 29.58in /  1001.6hPa West 13.6mph /  21.9km/h 26mph /  41.8km/h 80% 0.00in /  0mm 16 W/m2
08:39 49.4 °F /  9.7 °C 43.4 °F /  6.3 °C 29.58in /  1001.6hPa WSW 11.7mph /  18.8km/h 26mph /  41.8km/h 80% 0.00in /  0mm 12 W/m2
08:44 49 °F /  9.4 °C 42.7 °F /  5.9 °C 29.59in /  1001.9hPa West 11.2mph /  18km/h 19mph /  30.6km/h 79% 0.00in /  0mm 14 W/m2
08:49 48.8 °F /  9.3 °C 42.5 °F /  5.8 °C 29.58in /  1001.6hPa West 8.6mph /  13.8km/h 22mph /  35.4km/h 79% 0.00in /  0mm 32 W/m2
08:54 48.7 °F /  9.3 °C 42.7 °F /  5.9 °C 29.58in /  1001.6hPa WSW 7.8mph /  12.6km/h 15mph /  24.1km/h 79.8% 0.00in /  0mm 67 W/m2
08:59 48.7 °F /  9.3 °C 42.9 °F /  6.1 °C 29.58in /  1001.6hPa WSW 6.3mph /  10.1km/h 15mph /  24.1km/h 80.2% 0.00in /  0mm 67 W/m2
09:04 48.9 °F /  9.4 °C 43.3 °F /  6.3 °C 29.58in /  1001.6hPa West 6.8mph /  10.9km/h 16mph /  25.7km/h 81% 0.00in /  0mm 70 W/m2
09:09 49.3 °F /  9.6 °C 44 °F /  6.7 °C 29.58in /  1001.6hPa WSW 4.7mph /  7.6km/h 14mph /  22.5km/h 81.8% 0.00in /  0mm 35 W/m2
09:14 49.3 °F /  9.6 °C 44.1 °F /  6.7 °C 29.59in /  1001.9hPa WSW 13.3mph /  21.4km/h 23mph /  37km/h 82% 0.00in /  0mm 47 W/m2
09:19 49.5 °F /  9.7 °C 43.7 °F /  6.5 °C 29.59in /  1001.9hPa WSW 9.3mph /  15km/h 18mph /  29km/h 80.4% 0.00in /  0mm 53 W/m2
09:24 49.5 °F /  9.7 °C 42.9 °F /  6.1 °C 29.59in /  1001.9hPa WSW 8.5mph /  13.7km/h 21mph /  33.8km/h 78.3% 0.00in /  0mm 49 W/m2
09:29 49.3 °F /  9.6 °C 42.2 °F /  5.7 °C 29.59in /  1001.9hPa West 16.6mph /  26.7km/h 27mph /  43.5km/h 76.2% 0.00in /  0mm 69 W/m2
09:34 49.2 °F /  9.6 °C 41.6 °F /  5.3 °C 29.59in /  1001.9hPa West 12.4mph /  20km/h 27mph /  43.5km/h 75% 0.00in /  0mm 132 W/m2
09:39 49.1 °F /  9.5 °C 41.7 °F /  5.4 °C 29.59in /  1001.9hPa WSW 14.9mph /  24km/h 30mph /  48.3km/h 75.6% 0.00in /  0mm 83 W/m2
09:44 48.8 °F /  9.3 °C 41.7 °F /  5.4 °C 29.59in /  1001.9hPa WSW 12.2mph /  19.6km/h 28mph /  45.1km/h 76.4% 0.00in /  0mm 70 W/m2
09:49 48.4 °F /  9.1 °C 41.5 °F /  5.3 °C 29.59in /  1001.9hPa WSW 13.8mph /  22.2km/h 23mph /  37km/h 77% 0.00in /  0mm 93 W/m2
09:54 48.2 °F /  9 °C 41.4 °F /  5.2 °C 29.60in /  1002.3hPa WSW 12.7mph /  20.4km/h 22mph /  35.4km/h 77% 0.00in /  0mm 84 W/m2
09:59 47.9 °F /  8.8 °C 41.1 °F /  5.1 °C 29.59in /  1001.9hPa WSW 7.6mph /  12.2km/h 16mph /  25.7km/h 77% 0.00in /  0mm 47 W/m2
10:03 47.8 °F /  8.8 °C 41 °F /  5 °C 29.59in /  1001.9hPa West 9.5mph /  15.3km/h 18mph /  29km/h 77% 0.00in /  0mm 58 W/m2
10:09 48 °F /  8.9 °C 41.2 °F /  5.1 °C 29.59in /  1001.9hPa WSW 11.6mph /  18.7km/h 20mph /  32.2km/h 77% 0.00in /  0mm 70 W/m2
10:14 48.3 °F /  9.1 °C 41.5 °F /  5.3 °C 29.59in /  1001.9hPa West 11.1mph /  17.9km/h 18mph /  29km/h 77% 0.00in /  0mm 81 W/m2
10:19 48.5 °F /  9.2 °C 41.6 °F /  5.3 °C 29.59in /  1001.9hPa WSW 6.8mph /  10.9km/h 16mph /  25.7km/h 77% 0.00in /  0mm 83 W/m2
10:24 48.6 °F /  9.2 °C 41.7 °F /  5.4 °C 29.58in /  1001.6hPa West 8.4mph /  13.5km/h 16mph /  25.7km/h 77% 0.00in /  0mm 91 W/m2
10:29 48.8 °F /  9.3 °C 41.6 °F /  5.3 °C 29.59in /  1001.9hPa WSW 7.2mph /  11.6km/h 16mph /  25.7km/h 76.2% 0.00in /  0mm 151 W/m2
10:34 49.3 °F /  9.6 °C 42 °F /  5.6 °C 29.58in /  1001.6hPa WSW 7.9mph /  12.7km/h 18mph /  29km/h 75.8% 0.00in /  0mm 179 W/m2
10:39 49.5 °F /  9.7 °C 41.9 °F /  5.5 °C 29.58in /  1001.6hPa WSW 11.8mph /  19km/h 19mph /  30.6km/h 75% 0.00in /  0mm 162 W/m2
10:44 49.6 °F /  9.8 °C 42.2 °F /  5.7 °C 29.59in /  1001.9hPa West 8.8mph /  14.2km/h 19mph /  30.6km/h 75.2% 0.00in /  0mm 171 W/m2
10:49 49.8 °F /  9.9 °C 42.6 °F /  5.9 °C 29.58in /  1001.6hPa WSW 7mph /  11.3km/h 18mph /  29km/h 76% 0.00in /  0mm 172 W/m2
10:54 50 °F /  10 °C 42.9 °F /  6.1 °C 29.58in /  1001.6hPa WSW 10.8mph /  17.4km/h 19mph /  30.6km/h 76.4% 0.00in /  0mm 220 W/m2
10:59 50.4 °F /  10.2 °C 43 °F /  6.1 °C 29.58in /  1001.6hPa West 14.6mph /  23.5km/h 27mph /  43.5km/h 75.6% 0.00in /  0mm 223 W/m2
11:04 50.5 °F /  10.3 °C 43 °F /  6.1 °C 29.58in /  1001.6hPa WSW 10.8mph /  17.4km/h 19mph /  30.6km/h 75% 0.00in /  0mm 220 W/m2
11:09 50.5 °F /  10.3 °C 42.8 °F /  6 °C 29.58in /  1001.6hPa WSW 14mph /  22.5km/h 23mph /  37km/h 74.6% 0.00in /  0mm 125 W/m2
11:14 50.2 °F /  10.1 °C 42.6 °F /  5.9 °C 29.58in /  1001.6hPa WSW 12mph /  19.3km/h 23mph /  37km/h 75% 0.00in /  0mm 120 W/m2
11:19 49.8 °F /  9.9 °C 42.3 °F /  5.7 °C 29.58in /  1001.6hPa WSW 10mph /  16.1km/h 22mph /  35.4km/h 75% 0.00in /  0mm 104 W/m2
11:24 49.8 °F /  9.9 °C 42.3 °F /  5.7 °C 29.57in /  1001.2hPa WSW 9.6mph /  15.4km/h 20mph /  32.2km/h 75% 0.00in /  0mm 118 W/m2
11:29 49.9 °F /  9.9 °C 42.6 °F /  5.9 °C 29.57in /  1001.2hPa WSW 3.9mph /  6.3km/h 14mph /  22.5km/h 75.6% 0.00in /  0mm 178 W/m2
11:33 50 °F /  10 °C 42.8 °F /  6 °C 29.57in /  1001.2hPa WSW 13.3mph /  21.4km/h 20mph /  32.2km/h 76% 0.00in /  0mm 83 W/m2
11:39 49.8 °F /  9.9 °C 42.6 °F /  5.9 °C 29.57in /  1001.2hPa WSW 7.4mph /  11.9km/h 16mph /  25.7km/h 76% 0.00in /  0mm 181 W/m2
11:44 49.8 °F /  9.9 °C 42.6 °F /  5.9 °C 29.57in /  1001.2hPa WSW 17mph /  27.4km/h 22mph /  35.4km/h 76% 0.00in /  0mm 90 W/m2
11:49 49.8 °F /  9.9 °C 42.6 °F /  5.9 °C 29.57in /  1001.2hPa WSW 14.8mph /  23.8km/h 23mph /  37km/h 76% 0.00in /  0mm 40 W/m2
11:54 49.6 °F /  9.8 °C 42.3 °F /  5.7 °C 29.57in /  1001.2hPa WSW 12.9mph /  20.8km/h 23mph /  37km/h 75.8% 0.00in /  0mm 60 W/m2
11:59 49.6 °F /  9.8 °C 42.1 °F /  5.6 °C 29.57in /  1001.2hPa SW 14.2mph /  22.9km/h 28mph /  45.1km/h 75% 0.00in /  0mm 186 W/m2
12:04 49.6 °F /  9.8 °C 41.6 °F /  5.3 °C 29.57in /  1001.2hPa WSW 13mph /  20.9km/h 28mph /  45.1km/h 73.6% 0.00in /  0mm 186 W/m2
12:09 49.8 °F /  9.9 °C 41.4 °F /  5.2 °C 29.56in /  1000.9hPa West 9mph /  14.5km/h 28mph /  45.1km/h 72.6% 0.00in /  0mm 185 W/m2
12:14 49.8 °F /  9.9 °C 41.2 °F /  5.1 °C 29.56in /  1000.9hPa West 8.6mph /  13.8km/h 19mph /  30.6km/h 72% 0.00in /  0mm 44 W/m2
12:19 49.6 °F /  9.8 °C 41.1 °F /  5.1 °C 29.56in /  1000.9hPa West 10mph /  16.1km/h 21mph /  33.8km/h 72.2% 0.00in /  0mm 74 W/m2
12:24 49.6 °F /  9.8 °C 41.3 °F /  5.2 °C 29.55in /  1000.6hPa WSW 6.8mph /  10.9km/h 14mph /  22.5km/h 73% 0.00in /  0mm 79 W/m2
12:29 49.5 °F /  9.7 °C 41.5 °F /  5.3 °C 29.55in /  1000.6hPa WSW 7.3mph /  11.7km/h 19mph /  30.6km/h 74% 0.00in /  0mm 33 W/m2
12:34 49.5 °F /  9.7 °C 42.1 °F /  5.6 °C 29.55in /  1000.6hPa WSW 9.2mph /  14.8km/h 15mph /  24.1km/h 75.4% 0.00in /  0mm 111 W/m2
12:39 49.3 °F /  9.6 °C 42.3 °F /  5.7 °C 29.55in /  1000.6hPa WSW 9.2mph /  14.8km/h 18mph /  29km/h 76.8% 0.00in /  0mm 97 W/m2
12:44 49.4 °F /  9.7 °C 42.5 °F /  5.8 °C 29.55in /  1000.6hPa WSW 14mph /  22.5km/h 30mph /  48.3km/h 77% 0.00in /  0mm 118 W/m2
12:49 49.5 °F /  9.7 °C 42.3 °F /  5.7 °C 29.55in /  1000.6hPa WSW 7.8mph /  12.6km/h 30mph /  48.3km/h 76% 0.00in /  0mm 137 W/m2
12:54 49.6 °F /  9.8 °C 42.4 °F /  5.8 °C 29.55in /  1000.6hPa WSW 10mph /  16.1km/h 23mph /  37km/h 76% 0.00in /  0mm 135 W/m2
12:59 49.6 °F /  9.8 °C 42.4 °F /  5.8 °C 29.54in /  1000.2hPa WSW 10mph /  16.1km/h 20mph /  32.2km/h 76% 0.00in /  0mm 125 W/m2
13:04 49.6 °F /  9.8 °C 42.2 °F /  5.7 °C 29.54in /  1000.2hPa West 12.8mph /  20.6km/h 21mph /  33.8km/h 75.4% 0.00in /  0mm 105 W/m2
13:09 49.6 °F /  9.8 °C 42.3 °F /  5.7 °C 29.54in /  1000.2hPa WSW 10.1mph /  16.3km/h 18mph /  29km/h 75.6% 0.00in /  0mm 67 W/m2
13:14 49.5 °F /  9.7 °C 42.3 °F /  5.7 °C 29.54in /  1000.2hPa WSW 11mph /  17.7km/h 19mph /  30.6km/h 76% 0.00in /  0mm 54 W/m2
13:19 49.5 °F /  9.7 °C 42.3 °F /  5.7 °C 29.53in /  999.9hPa WSW 9.6mph /  15.4km/h 18mph /  29km/h 76% 0.00in /  0mm 44 W/m2
13:24 49.5 °F /  9.7 °C 42.1 °F /  5.6 °C 29.55in /  1000.6hPa WSW 13.6mph /  21.9km/h 29mph /  46.7km/h 75.6% 0.00in /  0mm 14 W/m2
13:29 47.3 °F /  8.5 °C 40.7 °F /  4.8 °C 29.56in /  1000.9hPa West 12.6mph /  20.3km/h 35mph /  56.3km/h 77.6% 0.02in /  0.51mm 18 W/m2
13:34 45.6 °F /  7.6 °C 38.9 °F /  3.8 °C 29.54in /  1000.2hPa SW 16.4mph /  26.4km/h 32mph /  51.5km/h 77.2% 0.02in /  0.51mm 28 W/m2
13:39 45.1 °F /  7.3 °C 38.4 °F /  3.6 °C 29.54in /  1000.2hPa WSW 11.8mph /  19km/h 24mph /  38.6km/h 77.2% 0.02in /  0.51mm 69 W/m2
13:44 45.1 °F /  7.3 °C 38.7 °F /  3.7 °C 29.53in /  999.9hPa West 11.4mph /  18.3km/h 22mph /  35.4km/h 78% 0.02in /  0.51mm 88 W/m2
13:49 45.3 °F /  7.4 °C 38.8 °F /  3.8 °C 29.53in /  999.9hPa WSW 9.4mph /  15.1km/h 18mph /  29km/h 78% 0.02in /  0.51mm 93 W/m2
13:54 45.8 °F /  7.7 °C 39.3 °F /  4.1 °C 29.53in /  999.9hPa West 9.8mph /  15.8km/h 14mph /  22.5km/h 78% 0.02in /  0.51mm 213 W/m2
13:59 46.6 °F /  8.1 °C 39.9 °F /  4.4 °C 29.52in /  999.5hPa WSW 11.6mph /  18.7km/h 22mph /  35.4km/h 77.4% 0.02in /  0.51mm 200 W/m2
14:04 46.8 °F /  8.2 °C 40 °F /  4.4 °C 29.52in /  999.5hPa West 9.3mph /  15km/h 20mph /  32.2km/h 77.2% 0.02in /  0.51mm 139 W/m2
14:09 46.8 °F /  8.2 °C 40.3 °F /  4.6 °C 29.52in /  999.5hPa WSW 13.1mph /  21.1km/h 21mph /  33.8km/h 78% 0.02in /  0.51mm 118 W/m2
14:14 46.8 °F /  8.2 °C 40.3 °F /  4.6 °C 29.51in /  999.2hPa West 11mph /  17.7km/h 24mph /  38.6km/h 78% 0.02in /  0.51mm 105 W/m2
14:19 46.6 °F /  8.1 °C 40.4 °F /  4.7 °C 29.51in /  999.2hPa WSW 10.8mph /  17.4km/h 22mph /  35.4km/h 78.8% 0.02in /  0.51mm 42 W/m2
14:24 46.2 °F /  7.9 °C 40.1 °F /  4.5 °C 29.52in /  999.5hPa SW 12mph /  19.3km/h 23mph /  37km/h 79% 0.02in /  0.51mm 56 W/m2
14:29 46 °F /  7.8 °C 40.3 °F /  4.6 °C 29.51in /  999.2hPa WSW 15mph /  24.1km/h 21mph /  33.8km/h 80% 0.01in /  0.25mm 70 W/m2
14:34 45.9 °F /  7.7 °C 40.3 °F /  4.6 °C 29.51in /  999.2hPa WSW 11.2mph /  18km/h 21mph /  33.8km/h 81% 0.00in /  0mm 60 W/m2
14:39 45.7 °F /  7.6 °C 40.3 °F /  4.6 °C 29.51in /  999.2hPa WSW 10.4mph /  16.7km/h 21mph /  33.8km/h 81.6% 0.00in /  0mm 32 W/m2
14:44 45.4 °F /  7.4 °C 40.6 °F /  4.8 °C 29.51in /  999.2hPa West 7mph /  11.3km/h 17mph /  27.4km/h 83% 0.00in /  0mm 37 W/m2
14:49 45.5 °F /  7.5 °C 41 °F /  5 °C 29.50in /  998.9hPa WSW 10.2mph /  16.4km/h 16mph /  25.7km/h 84% 0.00in /  0mm 53 W/m2
14:54 45.8 °F /  7.7 °C 41.3 °F /  5.2 °C 29.50in /  998.9hPa WSW 11mph /  17.7km/h 19mph /  30.6km/h 84% 0.00in /  0mm 79 W/m2
14:59 45.9 °F /  7.7 °C 41.3 °F /  5.2 °C 29.50in /  998.9hPa WSW 14mph /  22.5km/h 21mph /  33.8km/h 83.5% 0.00in /  0mm 42 W/m2
15:04 45.9 °F /  7.7 °C 41.2 °F /  5.1 °C 29.50in /  998.9hPa SW 13.4mph /  21.6km/h 21mph /  33.8km/h 83.6% 0.00in /  0mm 23 W/m2
15:09 45.8 °F /  7.7 °C 41.3 °F /  5.2 °C 29.50in /  998.9hPa SW 11.2mph /  18km/h 23mph /  37km/h 84% 0.02in /  0.51mm 21 W/m2
15:14 45.5 °F /  7.5 °C 41.1 °F /  5.1 °C 29.50in /  998.9hPa West 7.8mph /  12.6km/h 24mph /  38.6km/h 84.4% 0.02in /  0.51mm 19 W/m2
15:19 45.3 °F /  7.4 °C 41 °F /  5 °C 29.50in /  998.9hPa WSW 9.5mph /  15.3km/h 24mph /  38.6km/h 85% 0.02in /  0.51mm 37 W/m2
15:24 45.6 °F /  7.6 °C 41.6 °F /  5.3 °C 29.50in /  998.9hPa WSW 8.4mph /  13.5km/h 21mph /  33.8km/h 85.8% 0.02in /  0.51mm 40 W/m2
15:29 45.8 °F /  7.7 °C 41.5 °F /  5.3 °C 29.50in /  998.9hPa WSW 9.2mph /  14.8km/h 17mph /  27.4km/h 85% 0.02in /  0.51mm 69 W/m2
15:34 45.9 °F /  7.7 °C 41.5 °F /  5.3 °C 29.49in /  998.5hPa WSW 10mph /  16.1km/h 16mph /  25.7km/h 85% 0.02in /  0.51mm 35 W/m2
15:39 46 °F /  7.8 °C 41.5 °F /  5.3 °C 29.49in /  998.5hPa WSW 9.1mph /  14.6km/h 17mph /  27.4km/h 84.4% 0.02in /  0.51mm 25 W/m2
15:44 46.1 °F /  7.8 °C 41.5 °F /  5.3 °C 29.50in /  998.9hPa WSW 7mph /  11.3km/h 17mph /  27.4km/h 83.8% 0.02in /  0.51mm 14 W/m2
15:49 46.2 °F /  7.9 °C 41.4 °F /  5.2 °C 29.50in /  998.9hPa West 8.2mph /  13.2km/h 17mph /  27.4km/h 83% 0.02in /  0.51mm 0 W/m2
15:54 46.2 °F /  7.9 °C 41 °F /  5 °C 29.50in /  998.9hPa WSW 8.8mph /  14.2km/h 14mph /  22.5km/h 82% 0.02in /  0.51mm 0 W/m2
15:59 46 °F /  7.8 °C 40.6 °F /  4.8 °C 29.51in /  999.2hPa WSW 16.6mph /  26.7km/h 35mph /  56.3km/h 81.8% 0.02in /  0.51mm 0 W/m2
16:04 45 °F /  7.2 °C 39.8 °F /  4.3 °C 29.50in /  998.9hPa WSW 13mph /  20.9km/h 27mph /  43.5km/h 82.2% 0.03in /  0.76mm 0 W/m2
16:09 44.5 °F /  6.9 °C 39.8 °F /  4.3 °C 29.50in /  998.9hPa West 8.8mph /  14.2km/h 20mph /  32.2km/h 83.6% 0.03in /  0.76mm 0 W/m2
16:14 44.2 °F /  6.8 °C 39.9 °F /  4.4 °C 29.51in /  999.2hPa West 15.2mph /  24.5km/h 23mph /  37km/h 84.6% 0.03in /  0.76mm 0 W/m2
16:19 43.5 °F /  6.4 °C 39.5 °F /  4.2 °C 29.49in /  998.5hPa WSW 8mph /  12.9km/h 25mph /  40.2km/h 85.4% 0.04in /  1.02mm 0 W/m2
16:24 43.3 °F /  6.3 °C 39.5 °F /  4.2 °C 29.49in /  998.5hPa WSW 9mph /  14.5km/h 14mph /  22.5km/h 86.2% 0.05in /  1.27mm 0 W/m2
16:29 43.3 °F /  6.3 °C 39.7 °F /  4.3 °C 29.49in /  998.5hPa WSW 6.7mph /  10.8km/h 13mph /  20.9km/h 87% 0.05in /  1.27mm 0 W/m2
16:34 43.3 °F /  6.3 °C 39.7 °F /  4.3 °C 29.48in /  998.2hPa WSW 5.6mph /  9km/h 14mph /  22.5km/h 87% 0.05in /  1.27mm 0 W/m2
16:39 43.4 °F /  6.3 °C 39.8 °F /  4.3 °C 29.48in /  998.2hPa West 4.4mph /  7.1km/h 13mph /  20.9km/h 87% 0.05in /  1.27mm 0 W/m2
16:44 43.5 °F /  6.4 °C 39.9 °F /  4.4 °C 29.48in /  998.2hPa WSW 6.4mph /  10.3km/h 11mph /  17.7km/h 87% 0.05in /  1.27mm 0 W/m2
16:49 43.8 °F /  6.6 °C 40.3 °F /  4.6 °C 29.48in /  998.2hPa SW 3.7mph /  6km/h 10mph /  16.1km/h 87% 0.05in /  1.27mm 0 W/m2
16:54 44 °F /  6.7 °C 40.4 °F /  4.7 °C 29.48in /  998.2hPa WSW 7.8mph /  12.6km/h 14mph /  22.5km/h 87% 0.05in /  1.27mm 0 W/m2
16:59 44.3 °F /  6.8 °C 40.7 °F /  4.8 °C 29.48in /  998.2hPa WSW 8.6mph /  13.8km/h 14mph /  22.5km/h 87% 0.05in /  1.27mm 0 W/m2
17:04 44.7 °F /  7.1 °C 40.9 °F /  4.9 °C 29.47in /  997.9hPa WSW 11mph /  17.7km/h 20mph /  32.2km/h 86.6% 0.03in /  0.76mm 0 W/m2
17:09 44.8 °F /  7.1 °C 40.8 °F /  4.9 °C 29.48in /  998.2hPa WSW 8.4mph /  13.5km/h 14mph /  22.5km/h 86% 0.03in /  0.76mm 0 W/m2
17:14 45 °F /  7.2 °C 40.7 °F /  4.8 °C 29.47in /  997.9hPa West 12.6mph /  20.3km/h 21mph /  33.8km/h 85.2% 0.02in /  0.51mm 0 W/m2
17:19 45 °F /  7.2 °C 40.6 °F /  4.8 °C 29.47in /  997.9hPa SW 8.8mph /  14.2km/h 20mph /  32.2km/h 85% 0.01in /  0.25mm 0 W/m2
17:24 45.1 °F /  7.3 °C 40.6 °F /  4.8 °C 29.47in /  997.9hPa SW 10.4mph /  16.7km/h 21mph /  33.8km/h 84% 0.01in /  0.25mm 0 W/m2
17:29 45.1 °F /  7.3 °C 40.6 °F /  4.8 °C 29.47in /  997.9hPa SW 10.3mph /  16.6km/h 16mph /  25.7km/h 84% 0.00in /  0mm 0 W/m2
17:34 45.1 °F /  7.3 °C 40.4 °F /  4.7 °C 29.47in /  997.9hPa SW 10.7mph /  17.2km/h 17mph /  27.4km/h 83.2% 0.00in /  0mm 0 W/m2
17:39 45.3 °F /  7.4 °C 40.5 °F /  4.7 °C 29.47in /  997.9hPa WSW 10.8mph /  17.4km/h 19mph /  30.6km/h 83% 0.00in /  0mm 0 W/m2
17:44 45.4 °F /  7.4 °C 40.2 °F /  4.6 °C 29.47in /  997.9hPa SW 16.2mph /  26.1km/h 27mph /  43.5km/h 82% 0.00in /  0mm 0 W/m2
17:49 45.7 °F /  7.6 °C 40.1 °F /  4.5 °C 29.46in /  997.5hPa WSW 12.1mph /  19.5km/h 19mph /  30.6km/h 81% 0.00in /  0mm 0 W/m2
17:54 45.7 °F /  7.6 °C 39.9 °F /  4.4 °C 29.46in /  997.5hPa WSW 14mph /  22.5km/h 22mph /  35.4km/h 80.2% 0.00in /  0mm 0 W/m2
17:59 45.7 °F /  7.6 °C 39.9 °F /  4.4 °C 29.46in /  997.5hPa WSW 12.5mph /  20.1km/h 22mph /  35.4km/h 80% 0.00in /  0mm 0 W/m2
18:04 45.6 °F /  7.6 °C 39.8 °F /  4.3 °C 29.46in /  997.5hPa SW 11.4mph /  18.3km/h 20mph /  32.2km/h 80% 0.00in /  0mm 0 W/m2
18:09 45.4 °F /  7.4 °C 39.4 °F /  4.1 °C 29.46in /  997.5hPa WSW 13.6mph /  21.9km/h 25mph /  40.2km/h 79.4% 0.00in /  0mm 0 W/m2
18:13 45.3 °F /  7.4 °C 39.2 °F /  4 °C 29.45in /  997.2hPa WSW 9mph /  14.5km/h 22mph /  35.4km/h 79% 0.00in /  0mm 0 W/m2
18:19 45.2 °F /  7.3 °C 39.1 °F /  3.9 °C 29.45in /  997.2hPa SW 11.2mph /  18km/h 18mph /  29km/h 79% 0.00in /  0mm 0 W/m2
18:24 45.1 °F /  7.3 °C 39 °F /  3.9 °C 29.45in /  997.2hPa SW 10.6mph /  17.1km/h 20mph /  32.2km/h 79% 0.00in /  0mm 0 W/m2
18:29 45 °F /  7.2 °C 38.8 °F /  3.8 °C 29.45in /  997.2hPa WSW 11.6mph /  18.7km/h 18mph /  29km/h 79% 0.00in /  0mm 0 W/m2
18:34 44.7 °F /  7.1 °C 38.9 °F /  3.8 °C 29.45in /  997.2hPa WSW 8.4mph /  13.5km/h 18mph /  29km/h 79.8% 0.00in /  0mm 0 W/m2
18:39 44.4 °F /  6.9 °C 38.8 °F /  3.8 °C 29.44in /  996.8hPa SW 5.6mph /  9km/h 13mph /  20.9km/h 80.6% 0.00in /  0mm 0 W/m2
18:44 44.1 °F /  6.7 °C 38.8 °F /  3.8 °C 29.44in /  996.8hPa SW 7.8mph /  12.6km/h 15mph /  24.1km/h 81.4% 0.00in /  0mm 0 W/m2
18:49 43.9 °F /  6.6 °C 38.8 °F /  3.8 °C 29.44in /  996.8hPa SW 9.2mph /  14.8km/h 14mph /  22.5km/h 82.2% 0.00in /  0mm 0 W/m2
18:54 43.7 °F /  6.5 °C 38.8 °F /  3.8 °C 29.44in /  996.8hPa SSW 9.8mph /  15.8km/h 18mph /  29km/h 83% 0.00in /  0mm 0 W/m2
18:59 43.5 °F /  6.4 °C 38.8 °F /  3.8 °C 29.44in /  996.8hPa SW 7.4mph /  11.9km/h 21mph /  33.8km/h 83.4% 0.00in /  0mm 0 W/m2
19:04 43.5 °F /  6.4 °C 38.9 °F /  3.8 °C 29.44in /  996.8hPa SW 8.5mph /  13.7km/h 14mph /  22.5km/h 83.8% 0.00in /  0mm 0 W/m2
19:09 43.5 °F /  6.4 °C 39 °F /  3.9 °C 29.44in /  996.8hPa SW 11.2mph /  18km/h 15mph /  24.1km/h 84% 0.00in /  0mm 0 W/m2
19:14 43.3 °F /  6.3 °C 39.2 °F /  4 °C 29.44in /  996.8hPa SW 7.7mph /  12.4km/h 18mph /  29km/h 84.8% 0.00in /  0mm 0 W/m2
19:19 43.3 °F /  6.3 °C 39.3 °F /  4.1 °C 29.43in /  996.5hPa WSW 13.4mph /  21.6km/h 18mph /  29km/h 85.6% 0.00in /  0mm 0 W/m2
19:24 43.3 °F /  6.3 °C 39.4 °F /  4.1 °C 29.43in /  996.5hPa SW 8.8mph /  14.2km/h 19mph /  30.6km/h 86% 0.00in /  0mm 0 W/m2
19:29 43.2 °F /  6.2 °C 39.3 °F /  4.1 °C 29.42in /  996.2hPa SW 6.8mph /  10.9km/h 12mph /  19.3km/h 86% 0.00in /  0mm 0 W/m2
19:33 43.3 °F /  6.3 °C 39.3 °F /  4.1 °C 29.42in /  996.2hPa SW 7.9mph /  12.7km/h 16mph /  25.7km/h 86% 0.00in /  0mm 0 W/m2
19:39 43.4 °F /  6.3 °C 39.5 °F /  4.2 °C 29.42in /  996.2hPa WSW 7.6mph /  12.2km/h 17mph /  27.4km/h 86% 0.00in /  0mm 0 W/m2
19:44 43.6 °F /  6.4 °C 39.5 °F /  4.2 °C 29.42in /  996.2hPa SW 6mph /  9.7km/h 14mph /  22.5km/h 85% 0.01in /  0.25mm 0 W/m2
19:49 43.9 °F /  6.6 °C 39.7 °F /  4.3 °C 29.41in /  995.8hPa SSW 10.4mph /  16.7km/h 18mph /  29km/h 85% 0.01in /  0.25mm 0 W/m2
19:54 43.9 °F /  6.6 °C 39.7 °F /  4.3 °C 29.41in /  995.8hPa SW 9.6mph /  15.4km/h 18mph /  29km/h 85% 0.01in /  0.25mm 0 W/m2
19:59 43.7 °F /  6.5 °C 39.7 °F /  4.3 °C 29.42in /  996.2hPa SSW 13.7mph /  22km/h 23mph /  37km/h 85.4% 0.02in /  0.51mm 0 W/m2
20:04 43.5 °F /  6.4 °C 39.6 °F /  4.2 °C 29.42in /  996.2hPa SW 11.5mph /  18.5km/h 23mph /  37km/h 86% 0.03in /  0.76mm 0 W/m2
20:09 43.3 °F /  6.3 °C 39.6 °F /  4.2 °C 29.41in /  995.8hPa SW 7.6mph /  12.2km/h 20mph /  32.2km/h 86.8% 0.04in /  1.02mm 0 W/m2
20:14 43.2 °F /  6.2 °C 39.6 °F /  4.2 °C 29.41in /  995.8hPa SW 9mph /  14.5km/h 16mph /  25.7km/h 87% 0.04in /  1.02mm 0 W/m2
20:19 43.2 °F /  6.2 °C 39.7 °F /  4.3 °C 29.40in /  995.5hPa SW 6.6mph /  10.6km/h 16mph /  25.7km/h 87.6% 0.04in /  1.02mm 0 W/m2
20:24 43.2 °F /  6.2 °C 39.9 °F /  4.4 °C 29.39in /  995.1hPa SW 7.3mph /  11.7km/h 14mph /  22.5km/h 88% 0.04in /  1.02mm 0 W/m2
20:29 43.2 °F /  6.2 °C 39.9 °F /  4.4 °C 29.39in /  995.1hPa SSW 6.1mph /  9.8km/h 14mph /  22.5km/h 88% 0.04in /  1.02mm 0 W/m2
20:34 43 °F /  6.1 °C 39.7 °F /  4.3 °C 29.39in /  995.1hPa SW 7.8mph /  12.6km/h 18mph /  29km/h 88% 0.04in /  1.02mm 0 W/m2
20:39 43 °F /  6.1 °C 39.7 °F /  4.3 °C 29.38in /  994.8hPa SW 4.9mph /  7.9km/h 11mph /  17.7km/h 88% 0.04in /  1.02mm 0 W/m2
20:44 42.9 °F /  6.1 °C 39.7 °F /  4.3 °C 29.37in /  994.5hPa SW 7.6mph /  12.2km/h 13mph /  20.9km/h 88% 0.04in /  1.02mm 0 W/m2
20:49 43.1 °F /  6.2 °C 39.8 °F /  4.3 °C 29.37in /  994.5hPa SW 6.5mph /  10.5km/h 13mph /  20.9km/h 88% 0.04in /  1.02mm 0 W/m2
20:54 43.2 °F /  6.2 °C 39.9 °F /  4.4 °C 29.37in /  994.5hPa SSW 4.7mph /  7.6km/h 18mph /  29km/h 88% 0.04in /  1.02mm 0 W/m2
20:59 43.2 °F /  6.2 °C 39.9 °F /  4.4 °C 29.36in /  994.1hPa SW 8.4mph /  13.5km/h 15mph /  24.1km/h 88% 0.05in /  1.27mm 0 W/m2
21:04 43.1 °F /  6.2 °C 39.8 °F /  4.3 °C 29.36in /  994.1hPa SSW 7.9mph /  12.7km/h 17mph /  27.4km/h 88% 0.04in /  1.02mm 0 W/m2
21:09 43 °F /  6.1 °C 39.7 °F /  4.3 °C 29.36in /  994.1hPa SW 7.6mph /  12.2km/h 16mph /  25.7km/h 88% 0.05in /  1.27mm 0 W/m2
21:14 42.8 °F /  6 °C 39.6 °F /  4.2 °C 29.35in /  993.8hPa SW 9.6mph /  15.4km/h 17mph /  27.4km/h 88% 0.07in /  1.78mm 0 W/m2
21:19 42.8 °F /  6 °C 39.6 °F /  4.2 °C 29.34in /  993.5hPa SW 4.8mph /  7.7km/h 11mph /  17.7km/h 88.2% 0.07in /  1.78mm 0 W/m2
21:24 42.7 °F /  5.9 °C 39.6 °F /  4.2 °C 29.33in /  993.1hPa SSW 3.3mph /  5.3km/h 7mph /  11.3km/h 88.8% 0.08in /  2.03mm 0 W/m2
21:29 42.8 °F /  6 °C 39.7 °F /  4.3 °C 29.32in /  992.8hPa SSW 3.6mph /  5.8km/h 7mph /  11.3km/h 89% 0.08in /  2.03mm 0 W/m2
21:34 42.8 °F /  6 °C 39.7 °F /  4.3 °C 29.32in /  992.8hPa SSW 4.5mph /  7.2km/h 9mph /  14.5km/h 89% 0.09in /  2.29mm 0 W/m2
21:39 43 °F /  6.1 °C 39.9 °F /  4.4 °C 29.31in /  992.4hPa SSW 5.4mph /  8.7km/h 12mph /  19.3km/h 89% 0.09in /  2.29mm 0 W/m2
21:44 43 °F /  6.1 °C 40.2 °F /  4.6 °C 29.31in /  992.4hPa South 6mph /  9.7km/h 12mph /  19.3km/h 89.8% 0.10in /  2.54mm 0 W/m2
21:49 43.1 °F /  6.2 °C 40.4 °F /  4.7 °C 29.29in /  991.8hPa SSW 6.2mph /  10km/h 14mph /  22.5km/h 90% 0.11in /  2.79mm 0 W/m2
21:54 43.3 °F /  6.3 °C 40.6 °F /  4.8 °C 29.28in /  991.4hPa South 5.2mph /  8.4km/h 14mph /  22.5km/h 90% 0.10in /  2.54mm 0 W/m2
21:59 43.3 °F /  6.3 °C 40.6 °F /  4.8 °C 29.28in /  991.4hPa SSW 5.5mph /  8.9km/h 12mph /  19.3km/h 90% 0.10in /  2.54mm 0 W/m2
22:04 43.5 °F /  6.4 °C 40.8 °F /  4.9 °C 29.27in /  991.1hPa SSW 10.6mph /  17.1km/h 17mph /  27.4km/h 90% 0.09in /  2.29mm 0 W/m2
22:09 43.5 °F /  6.4 °C 40.8 °F /  4.9 °C 29.26in /  990.7hPa SSW 7.4mph /  11.9km/h 16mph /  25.7km/h 90% 0.08in /  2.03mm 0 W/m2
22:14 43.5 °F /  6.4 °C 40.8 °F /  4.9 °C 29.26in /  990.7hPa SW 6.2mph /  10km/h 15mph /  24.1km/h 90% 0.08in /  2.03mm 0 W/m2
22:19 43.6 °F /  6.4 °C 41 °F /  5 °C 29.25in /  990.4hPa SSW 9.8mph /  15.8km/h 17mph /  27.4km/h 90.6% 0.09in /  2.29mm 0 W/m2
22:24 43.9 °F /  6.6 °C 41.4 °F /  5.2 °C 29.25in /  990.4hPa SW 4.7mph /  7.6km/h 17mph /  27.4km/h 91% 0.09in /  2.29mm 0 W/m2
22:29 44 °F /  6.7 °C 41.5 °F /  5.3 °C 29.25in /  990.4hPa SW 7.8mph /  12.6km/h 15mph /  24.1km/h 91% 0.12in /  3.05mm 0 W/m2
22:34 44.2 °F /  6.8 °C 41.6 °F /  5.3 °C 29.24in /  990.1hPa SW 13.4mph /  21.6km/h 28mph /  45.1km/h 91% 0.13in /  3.3mm 0 W/m2
22:39 45.1 °F /  7.3 °C 42.7 °F /  5.9 °C 29.24in /  990.1hPa WSW 13mph /  20.9km/h 27mph /  43.5km/h 91.5% 0.13in /  3.3mm 0 W/m2
22:44 45.6 °F /  7.6 °C 43.1 °F /  6.2 °C 29.24in /  990.1hPa WSW 10mph /  16.1km/h 22mph /  35.4km/h 91.2% 0.12in /  3.05mm 0 W/m2
22:49 46 °F /  7.8 °C 43.8 °F /  6.6 °C 29.25in /  990.4hPa West 11.2mph /  18km/h 23mph /  37km/h 92% 0.11in /  2.79mm 0 W/m2
22:54 46.2 °F /  7.9 °C 44 °F /  6.7 °C 29.26in /  990.7hPa West 14.8mph /  23.8km/h 25mph /  40.2km/h 91.6% 0.10in /  2.54mm 0 W/m2
22:59 46.6 °F /  8.1 °C 44.4 °F /  6.9 °C 29.26in /  990.7hPa West 11.5mph /  18.5km/h 23mph /  37km/h 92% 0.10in /  2.54mm 0 W/m2
23:04 46.6 °F /  8.1 °C 44.2 °F /  6.8 °C 29.27in /  991.1hPa West 10.6mph /  17.1km/h 21mph /  33.8km/h 91.2% 0.09in /  2.29mm 0 W/m2
23:09 46.7 °F /  8.2 °C 44.2 °F /  6.8 °C 29.28in /  991.4hPa West 12.6mph /  20.3km/h 21mph /  33.8km/h 91% 0.09in /  2.29mm 0 W/m2
23:14 46.8 °F /  8.2 °C 44.2 °F /  6.8 °C 29.28in /  991.4hPa West 17.9mph /  28.8km/h 33mph /  53.1km/h 90.8% 0.08in /  2.03mm 0 W/m2
23:19 46.8 °F /  8.2 °C 44 °F /  6.7 °C 29.29in /  991.8hPa West 12.2mph /  19.6km/h 28mph /  45.1km/h 89.6% 0.06in /  1.52mm 0 W/m2
23:24 46.8 °F /  8.2 °C 43.5 °F /  6.4 °C 29.30in /  992.1hPa West 17mph /  27.4km/h 33mph /  53.1km/h 88.6% 0.05in /  1.27mm 0 W/m2
23:29 46.8 °F /  8.2 °C 43.3 °F /  6.3 °C 29.30in /  992.1hPa West 13.2mph /  21.2km/h 26mph /  41.8km/h 87.2% 0.02in /  0.51mm 0 W/m2
23:33 46.8 °F /  8.2 °C 42.9 °F /  6.1 °C 29.31in /  992.4hPa WNW 9.7mph /  15.6km/h 26mph /  41.8km/h 86.3% 0.01in /  0.25mm 0 W/m2
23:39 46.8 °F /  8.2 °C 42.8 °F /  6 °C 29.31in /  992.4hPa West 13.4mph /  21.6km/h 21mph /  33.8km/h 86% 0.00in /  0mm 0 W/m2
23:44 46.6 °F /  8.1 °C 42.6 °F /  5.9 °C 29.31in /  992.4hPa West 8.7mph /  14km/h 20mph /  32.2km/h 86% 0.00in /  0mm 0 W/m2
23:49 46.6 °F /  8.1 °C 42.4 °F /  5.8 °C 29.32in /  992.8hPa West 10.2mph /  16.4km/h 22mph /  35.4km/h 85.4% 0.00in /  0mm 0 W/m2
23:54 46.4 °F /  8 °C 42.1 °F /  5.6 °C 29.32in /  992.8hPa West 11.2mph /  18km/h 21mph /  33.8km/h 85% 0.00in /  0mm 0 W/m2
23:59 46.4 °F /  8 °C 42.1 °F /  5.6 °C 29.32in /  992.8hPa West 13.5mph /  21.7km/h 23mph /  37km/h 85% 0.00in /  0mm 0 W/m2
Bath Spa Weather
Compliments of Weather Underground - 2 mb